KVNYKCMA

Guest
Details From KVNY - Van Nuys
To KCMA - CAMARILLO
Flight Number -
Tags generated
Created
Modified
Stats Distance 35 nm / 65 km
Max Altitude 2,900 ft / 884 m
Waypoints 3
Social Downloads 0
Likes 0
Share VATSIM

Download

Looking for another format? Having issues loading an existing format? Contact us
Advertisement - Login to hide

Notes

Basic altitude profile: - Ascent Rate: 2500ft/min - Ascent Speed: 250kts - Cruise Altitude: 35000ft - Cruise Speed: 420kts - Descent Rate: 1500ft/min - Descent Speed: 250kts Options: - Use NATs: yes - Use PACOTS: yes - Use low airways: no - Use high airways: yes

Route

KVNY FIM KCMA

ID Type Via Altitude Latitude Longitude Leg Dist Tot Dist Heading (true) Name
O KVNY APT - 0 ft / 0 m 34.21072˚ -118.48984˚ - 0 nm - Van Nuys
FIM VOR - 2,900 ft / 884 m 34.35669˚ -118.88128˚ 21 nm 21 nm 294° / 294° FILLMORE VORTAC
O KCMA APT - 0 ft / 0 m 34.21374˚ -119.09384˚ 13 nm 34 nm 231° / 231° CAMARILLO

Altitude Profile

Advertisement - Login to hide

KVNY

Details ICAO KVNY (VNY)
Name Van Nuys
Region United States
Timezone America/Los_Angeles (UTC-7.0)
Stats Elevation 802 ft / 244 m (AMSL)
Location 34.210723° -118.489841°
Runways 2
Magnetic Variation 12.036° E

METAR

KVNY 230151Z 16008KT 10SM SCT040 18/10 A2988 RMK AO2 SLP112 T01780100

Decode

TAF

KVNY 222342Z 2300/2324 16011KT P6SM SCT035 FM230300 VRB03KT P6SM SCT040 FM230800 VRB03KT P6SM OVC010 FM231700 19006KT P6SM SCT012 BKN035 FM232000 17006KT P6SM BKN050

Decode

Departure Runways

ID Width Length Bearing (true) Bearing (mag) Surface Threshold Offset Overrun Length
16L 75 ft / 23 m 4,021 ft / 1,226 m 175.53° 163.49° Asphalt 1,430 ft / 436 m 0 ft / 0 m
16R 151 ft / 46 m 8,022 ft / 2,445 m 175.54° 163.50° Asphalt 1,430 ft / 436 m 151 ft / 46 m
34L 151 ft / 46 m 8,022 ft / 2,445 m 355.54° 343.50° Asphalt 0 ft / 0 m 151 ft / 46 m
34R 75 ft / 23 m 4,021 ft / 1,226 m 355.53° 343.49° Asphalt 0 ft / 0 m 0 ft / 0 m

KCMA

Details ICAO KCMA
Name CAMARILLO
Region United States
Timezone America/Los_Angeles (UTC-7.0)
Stats Elevation 77 ft / 23 m (AMSL)
Location 34.213745° -119.093836°
Runways 1
Magnetic Variation 12.154° E

METAR

KCMA 230155Z 26006KT 10SM CLR 17/11 A2990 RMK AO2 SLP132 T01670106

Decode

TAF

TAF KCMA 222342Z 2300/2324 26011KT P6SM SCT050 FM230300 25007KT P6SM SKC FM231100 VRB03KT P6SM OVC012 FM231700 24006KT P6SM SCT015 BKN040 FM232000 25010KT P6SM SCT050

Decode

Destination Runways

ID Width Length Bearing (true) Bearing (mag) Surface Threshold Offset Overrun Length
08 151 ft / 46 m 6,019 ft / 1,835 m 90.56° 78.41° Asphalt 0 ft / 0 m 1,076 ft / 328 m
26 151 ft / 46 m 6,019 ft / 1,835 m 270.57° 258.42° Asphalt 0 ft / 0 m 2,861 ft / 872 m

Popular Alternatives